Accueil
METAR-TAF:

METAR-TAF

Aéroports :

Rarotonga, Îles Cook

Aéroport international de Rarotonga

latitude: 21-12S, longitude: 159-49W, altitude: 7 m

Observation

Le bulletin a été fait il y a 58 minutes, à 06:00 UTC
Vent 3 kt de sud
Température 22°C
Humidité 88%
Pression 1015 hPa
Visibilité 10 km ou plus
Quelques nuages à une hauteur de 2300 ft

METAR: NCRG 270600Z 17003KT 9999 FEW023 22/20 Q1015

Heure: 20:58 (06:58 UTC)

Prévision

Le bulletin a été fait il y a 1 heure et 38 minutes, à 05:20 UTC
Prévision valable du 27 à 06 UTC au 28 à 06 UTC
Vent 6 kt de sud
Visibilité 10 km ou plus
Nuages épars à une hauteur de 2000 ft

TAF: NCRG 270520Z 2706/2806 19006KT 9999 SCT020

Observations et prévisions météorologiques de plus de 4000 aéroports (messages METAR et TAF).

Les stations disponibles sont représentées par des disques jaunes et rouges sur la carte.

Passer la souris dessus pour voir le nom de la station.

Cliquer dessus pour voir les observations et prévisions météorologiques.

Pour changer de carte: cliquez sur les boutons verts avec une croix noire pour zoomer, sur le bouton vert avec un tiret pour effectuer un zoom arrière, ou sur les flèches vertes pour les cartes adjacentes.


METAR-TAF: